New Rome, Ohio
Current Conditions -  °F | °C
As of 8:15 PM on Tuesday 21 Oct 2014 (Local Time) from KTZR Reporting Station
Overcast Overcast  
Wind Chill: 42°   Ceiling: 3200
Heat Index: 46°   Visibility: 10mi
Dew Point: 41°   Wind: 7mph
Humidity: 83%   Direction: 320°NW
Pressure: 30.13"   Gusts: NA
Location:  39.9618°N, 83.129°W
Report Text: KTZR 220015Z AUTO 32006KT 10SM OVC032 08/05 A3013 RMK AO2 T00770050
Loading
Personal Weather Stations






























Interactive Weather Map
Tropical Storm Tracking
New forecast layout! Learn more

10-Day Weather Forecast

Advertisements
Track Severe Weather on mobile